createdAt,value
2022-12-12T00:00:35.397Z,2.42
2022-12-12T00:03:02.459Z,1.60
2022-12-12T00:05:29.129Z,1.95
2022-12-12T00:07:55.865Z,2.20
2022-12-12T00:10:22.834Z,2.22
2022-12-12T00:12:49.500Z,1.67
2022-12-12T00:15:16.410Z,1.45
2022-12-12T00:17:42.954Z,1.80
2022-12-12T00:20:09.670Z,1.63
2022-12-12T00:22:36.361Z,1.30
2022-12-12T00:25:02.962Z,1.20
2022-12-12T00:27:31.991Z,1.60
2022-12-12T00:29:58.705Z,1.63
2022-12-12T00:32:25.371Z,2.10
2022-12-12T00:34:52.215Z,1.70
2022-12-12T00:37:18.766Z,1.30
2022-12-12T00:39:45.865Z,1.25
2022-12-12T00:42:12.510Z,1.02
2022-12-12T00:44:39.519Z,0.90
2022-12-12T00:47:06.535Z,1.10
2022-12-12T00:49:33.482Z,0.95
2022-12-12T00:52:00.078Z,0.90
2022-12-12T00:54:26.796Z,1.00
2022-12-12T00:56:53.427Z,0.93
2022-12-12T00:59:20.070Z,1.10
2022-12-12T01:01:47.794Z,1.30
2022-12-12T01:04:15.423Z,1.10
2022-12-12T01:06:42.058Z,1.10
2022-12-12T01:09:08.820Z,1.20
2022-12-12T01:11:35.891Z,1.10
2022-12-12T01:14:21.300Z,1.35
2022-12-12T01:16:47.868Z,1.95
2022-12-12T01:19:14.849Z,2.25
2022-12-12T01:21:41.479Z,2.47
2022-12-12T01:24:08.153Z,3.67
2022-12-12T01:26:35.123Z,4.05
2022-12-12T01:29:01.871Z,5.90
2022-12-12T01:31:28.942Z,7.05
2022-12-12T01:33:55.594Z,7.07
2022-12-12T01:36:24.260Z,6.90
2022-12-12T01:38:54.697Z,7.18
2022-12-12T01:41:21.838Z,7.43
2022-12-12T01:43:48.941Z,7.43
2022-12-12T01:46:30.909Z,8.20
2022-12-12T01:49:23.999Z,8.50
2022-12-12T01:51:57.195Z,7.90
2022-12-12T01:54:35.041Z,7.78
2022-12-12T01:57:05.666Z,8.20
2022-12-12T01:59:33.729Z,7.20
2022-12-12T02:02:00.970Z,6.50
2022-12-12T02:04:28.554Z,6.22
2022-12-12T02:06:56.260Z,6.95
2022-12-12T02:09:25.798Z,7.28
2022-12-12T02:11:54.711Z,6.85
2022-12-12T02:14:29.163Z,6.63
2022-12-12T02:17:21.395Z,6.25
2022-12-12T02:20:41.387Z,6.75
2022-12-12T02:23:20.488Z,6.72
2022-12-12T02:26:03.755Z,6.60
2022-12-12T02:28:55.103Z,6.90
2022-12-12T02:31:30.641Z,6.53
2022-12-12T02:34:13.504Z,7.75
2022-12-12T02:37:11.002Z,6.55
2022-12-12T02:40:04.060Z,6.53
2022-12-12T02:42:42.050Z,6.40
2022-12-12T02:45:31.810Z,6.78
2022-12-12T02:48:05.627Z,7.35
2022-12-12T02:50:34.485Z,6.68
2022-12-12T02:53:01.365Z,6.47
2022-12-12T02:55:30.529Z,6.45
2022-12-12T02:57:59.947Z,6.75
2022-12-12T03:00:28.677Z,6.70
2022-12-12T03:03:22.823Z,6.15
2022-12-12T03:06:20.443Z,7.00
2022-12-12T03:08:59.384Z,6.55
2022-12-12T03:11:49.955Z,7.13
2022-12-12T03:14:39.408Z,7.13
2022-12-12T03:17:15.886Z,6.95
2022-12-12T03:19:55.243Z,8.98
2022-12-12T03:22:33.099Z,9.15
2022-12-12T03:25:44.282Z,9.07
2022-12-12T03:28:29.505Z,9.88
2022-12-12T03:30:58.102Z,9.68
2022-12-12T03:33:28.482Z,10.60
2022-12-12T03:36:08.825Z,9.65
2022-12-12T03:38:40.424Z,10.95
2022-12-12T03:41:13.379Z,10.73
2022-12-12T03:43:50.186Z,12.55
2022-12-12T03:46:21.311Z,12.68
2022-12-12T03:49:00.842Z,12.52
2022-12-12T03:51:32.951Z,14.60
2022-12-12T03:54:01.576Z,16.85
2022-12-12T03:56:39.305Z,16.50
2022-12-12T03:59:26.999Z,16.67
2022-12-12T04:02:00.538Z,16.33
2022-12-12T04:04:37.644Z,18.17
2022-12-12T04:07:13.987Z,17.52
2022-12-12T04:09:59.886Z,18.77
2022-12-12T04:12:59.169Z,19.17
2022-12-12T04:15:52.029Z,17.80
2022-12-12T04:18:49.501Z,18.70
2022-12-12T04:21:46.932Z,18.13
2022-12-12T04:24:36.126Z,18.73
2022-12-12T04:27:27.839Z,19.05
2022-12-12T04:30:05.055Z,19.10
2022-12-12T04:32:46.979Z,18.90
2022-12-12T04:35:23.531Z,17.70
2022-12-12T04:37:57.146Z,19.10
2022-12-12T04:40:29.177Z,18.48
2022-12-12T04:43:04.145Z,18.50
2022-12-12T04:45:35.218Z,17.63
2022-12-12T04:48:05.035Z,17.15
2022-12-12T04:50:34.845Z,18.58
2022-12-12T04:53:05.081Z,19.23
2022-12-12T04:55:34.603Z,19.20
2022-12-12T04:58:02.601Z,18.90
2022-12-12T05:00:36.556Z,18.98
2022-12-12T05:03:21.463Z,18.20
2022-12-12T05:05:54.989Z,19.02
2022-12-12T05:08:28.346Z,16.98
2022-12-12T05:10:59.545Z,17.02
2022-12-12T05:13:34.571Z,17.95
2022-12-12T05:16:08.249Z,21.60
2022-12-12T05:18:38.167Z,21.40
2022-12-12T05:21:05.011Z,23.42
2022-12-12T05:23:34.820Z,21.60
2022-12-12T05:26:10.306Z,22.23
2022-12-12T05:28:38.039Z,19.17
2022-12-12T05:31:04.898Z,18.15
2022-12-12T05:33:31.667Z,18.35
2022-12-12T05:35:58.358Z,18.70
2022-12-12T05:38:24.889Z,19.83
2022-12-12T05:40:52.052Z,18.30
2022-12-12T05:43:18.734Z,17.55
2022-12-12T05:45:45.409Z,20.65
2022-12-12T05:48:12.379Z,16.60
2022-12-12T05:50:38.992Z,18.83
2022-12-12T05:53:05.789Z,16.65
2022-12-12T05:55:32.518Z,20.05
2022-12-12T05:57:59.537Z,18.55
2022-12-12T06:00:26.232Z,20.77
2022-12-12T06:02:53.790Z,17.85
2022-12-12T06:05:20.799Z,21.58
2022-12-12T06:07:47.447Z,16.98
2022-12-12T06:10:14.579Z,20.23
2022-12-12T06:12:41.276Z,19.83
2022-12-12T06:15:08.210Z,23.67
2022-12-12T06:17:35.398Z,23.25
2022-12-12T06:20:02.288Z,20.67
2022-12-12T06:22:29.372Z,22.63
2022-12-12T06:24:56.340Z,17.00
2022-12-12T06:27:23.078Z,16.52
2022-12-12T06:29:49.598Z,17.52
2022-12-12T06:32:16.261Z,18.02
2022-12-12T06:34:43.185Z,14.75
2022-12-12T06:37:17.055Z,17.02
2022-12-12T06:39:44.519Z,21.15
2022-12-12T06:42:11.235Z,19.27
2022-12-12T06:44:38.450Z,18.20
2022-12-12T06:47:05.288Z,16.63
2022-12-12T06:49:31.867Z,18.42
2022-12-12T06:52:00.006Z,19.05
2022-12-12T06:54:26.937Z,20.27
2022-12-12T06:56:53.580Z,20.13
2022-12-12T06:59:20.181Z,18.45
2022-12-12T07:01:47.335Z,19.10
2022-12-12T07:04:15.821Z,19.27
2022-12-12T07:06:42.932Z,18.65
2022-12-12T07:09:10.339Z,18.95
2022-12-12T07:11:36.965Z,20.38
2022-12-12T07:14:05.836Z,18.88
2022-12-12T07:16:32.568Z,19.52
2022-12-12T07:18:59.682Z,18.13
2022-12-12T07:21:26.349Z,18.65
2022-12-12T07:23:53.056Z,19.58
2022-12-12T07:26:22.720Z,20.75
2022-12-12T07:28:50.870Z,22.65
2022-12-12T07:31:19.998Z,20.45
2022-12-12T07:33:47.732Z,21.45
2022-12-12T07:36:15.773Z,19.98
2022-12-12T07:38:42.538Z,19.40
2022-12-12T07:41:15.202Z,23.42
2022-12-12T07:43:44.773Z,24.33
2022-12-12T07:46:16.023Z,22.48
2022-12-12T07:48:43.226Z,20.63
2022-12-12T07:51:10.234Z,22.92
2022-12-12T07:53:36.982Z,20.80
2022-12-12T07:56:12.148Z,17.65
2022-12-12T07:58:39.879Z,15.70
2022-12-12T08:01:15.395Z,15.98
2022-12-12T08:03:44.231Z,16.20
2022-12-12T08:06:11.908Z,16.00
2022-12-12T08:08:38.988Z,17.05
2022-12-12T08:11:08.418Z,15.48
2022-12-12T08:13:36.782Z,15.20
2022-12-12T08:16:05.132Z,14.70
2022-12-12T08:18:32.446Z,14.23
2022-12-12T08:20:59.474Z,13.32
2022-12-12T08:23:26.345Z,11.45
2022-12-12T08:25:53.234Z,10.90
2022-12-12T08:28:19.965Z,12.35
2022-12-12T08:30:51.165Z,12.82
2022-12-12T08:33:18.621Z,13.40
2022-12-12T08:35:45.556Z,12.10
2022-12-12T08:38:12.376Z,13.27
2022-12-12T08:40:39.610Z,14.38
2022-12-12T08:43:06.249Z,13.82
2022-12-12T08:45:33.058Z,11.13
2022-12-12T08:47:59.691Z,11.10
2022-12-12T08:50:26.512Z,21.88
2022-12-12T08:52:53.328Z,17.52
2022-12-12T08:55:20.417Z,19.60
2022-12-12T08:57:47.293Z,35.78
2022-12-12T09:00:14.668Z,16.83
2022-12-12T09:02:41.652Z,17.30
2022-12-12T09:05:08.691Z,16.65
2022-12-12T09:07:36.405Z,17.48
2022-12-12T09:10:03.307Z,17.27
2022-12-12T09:12:29.866Z,17.17
2022-12-12T09:14:56.519Z,18.20
2022-12-12T09:17:23.160Z,16.10
2022-12-12T09:19:50.147Z,18.65
2022-12-12T09:22:18.862Z,16.80
2022-12-12T09:24:45.387Z,14.35
2022-12-12T09:27:12.067Z,16.13
2022-12-12T09:29:39.357Z,15.25
2022-12-12T09:32:06.800Z,14.75
2022-12-12T09:34:34.336Z,14.50
2022-12-12T09:37:01.435Z,13.48
2022-12-12T09:39:28.005Z,13.88
2022-12-12T09:41:54.930Z,13.13
2022-12-12T09:44:22.726Z,14.65
2022-12-12T09:46:53.385Z,16.00
2022-12-12T09:49:41.661Z,14.32
2022-12-12T09:52:15.011Z,14.48
2022-12-12T09:54:42.470Z,13.57
2022-12-12T09:57:18.803Z,12.52
2022-12-12T10:00:02.162Z,13.18
2022-12-12T10:02:35.068Z,13.23
2022-12-12T10:05:03.285Z,14.25
2022-12-12T10:07:29.905Z,12.43
2022-12-12T10:09:59.559Z,13.25
2022-12-12T10:12:27.299Z,13.63
2022-12-12T10:15:13.222Z,14.98
2022-12-12T10:17:47.815Z,14.93
2022-12-12T10:20:22.639Z,14.60
2022-12-12T10:22:56.875Z,15.88
2022-12-12T10:25:47.993Z,15.77
2022-12-12T10:28:17.935Z,17.17
2022-12-12T10:31:12.210Z,19.33
2022-12-12T10:34:05.227Z,18.48
2022-12-12T10:36:48.551Z,21.23
2022-12-12T10:39:36.005Z,19.60
2022-12-12T10:42:15.400Z,24.30
2022-12-12T10:44:51.069Z,26.50
2022-12-12T10:47:18.285Z,25.27
2022-12-12T10:49:44.968Z,24.90
2022-12-12T10:52:18.506Z,24.50
2022-12-12T10:54:49.773Z,29.38
2022-12-12T10:57:25.657Z,27.90
2022-12-12T10:59:57.976Z,26.58
2022-12-12T11:02:36.945Z,27.92
2022-12-12T11:05:26.654Z,29.30
2022-12-12T11:08:05.457Z,30.13
2022-12-12T11:10:37.641Z,28.70
2022-12-12T11:13:16.561Z,28.98
2022-12-12T11:15:46.285Z,30.02
2022-12-12T11:18:16.517Z,29.55
2022-12-12T11:20:48.992Z,29.98
2022-12-12T11:23:21.259Z,29.70
2022-12-12T11:26:05.818Z,30.25
2022-12-12T11:28:36.832Z,29.08
2022-12-12T11:31:08.848Z,30.95
2022-12-12T11:33:43.281Z,30.55
2022-12-12T11:36:19.155Z,30.85
2022-12-12T11:38:52.039Z,30.38
2022-12-12T11:41:19.317Z,30.48
2022-12-12T11:43:48.978Z,29.92
2022-12-12T11:46:16.036Z,30.10
2022-12-12T11:48:51.873Z,31.92
2022-12-12T11:51:33.788Z,31.90
2022-12-12T11:54:02.777Z,29.73
2022-12-12T11:56:37.269Z,31.40
2022-12-12T11:59:27.413Z,29.13
2022-12-12T12:02:31.793Z,29.40
2022-12-12T12:05:27.289Z,29.27
2022-12-12T12:08:32.534Z,27.85
2022-12-12T12:11:43.374Z,28.05
2022-12-12T12:14:12.843Z,28.65
2022-12-12T12:16:44.561Z,28.52
2022-12-12T12:19:22.272Z,28.73
2022-12-12T12:22:04.626Z,29.48
2022-12-12T12:24:52.891Z,29.15
2022-12-12T12:27:33.197Z,30.08
2022-12-12T12:30:12.279Z,28.48
2022-12-12T12:32:48.001Z,30.77
2022-12-12T12:35:42.575Z,30.67
2022-12-12T12:38:34.132Z,30.33
2022-12-12T12:41:24.149Z,31.52
2022-12-12T12:44:17.013Z,30.65
2022-12-12T12:47:00.141Z,31.85
2022-12-12T12:49:33.233Z,29.33
2022-12-12T12:52:06.387Z,31.40
2022-12-12T12:54:47.319Z,29.98
2022-12-12T12:57:22.103Z,31.85
2022-12-12T12:59:53.704Z,30.77
2022-12-12T13:02:37.061Z,30.75
2022-12-12T13:05:14.978Z,29.77
2022-12-12T13:07:57.226Z,30.45
2022-12-12T13:10:29.359Z,28.63
2022-12-12T13:13:12.492Z,27.88
2022-12-12T13:15:47.107Z,29.45
2022-12-12T13:18:16.732Z,28.38
2022-12-12T13:21:00.813Z,24.85
2022-12-12T13:23:56.729Z,25.10
2022-12-12T13:26:37.954Z,26.80
2022-12-12T13:29:23.885Z,25.30
2022-12-12T13:32:17.179Z,27.33
2022-12-12T13:34:52.738Z,24.42
2022-12-12T13:37:22.232Z,21.73
2022-12-12T13:39:59.879Z,24.40
2022-12-12T13:42:27.064Z,60.97
2022-12-12T13:44:53.753Z,26.70
2022-12-12T13:47:23.765Z,25.75
2022-12-12T13:50:01.523Z,26.63
2022-12-12T13:52:41.027Z,28.17
2022-12-12T13:55:14.107Z,27.38
2022-12-12T13:57:59.302Z,30.85
2022-12-12T14:00:46.643Z,35.63
2022-12-12T14:03:13.219Z,33.97
2022-12-12T14:05:51.374Z,31.90
2022-12-12T14:08:18.520Z,29.95
2022-12-12T14:11:05.095Z,27.25
2022-12-12T14:13:41.444Z,25.08
2022-12-12T14:16:20.836Z,23.83
2022-12-12T14:18:50.307Z,20.88
2022-12-12T14:21:22.169Z,20.85
2022-12-12T14:23:52.042Z,20.50
2022-12-12T14:26:27.905Z,21.63
2022-12-12T14:29:16.398Z,22.38
2022-12-12T14:31:51.520Z,22.67
2022-12-12T14:34:52.136Z,22.65
2022-12-12T14:37:56.719Z,24.45
2022-12-12T14:40:35.041Z,22.15
2022-12-12T14:43:19.136Z,21.73
2022-12-12T14:46:00.865Z,23.63
2022-12-12T14:48:37.684Z,20.88
2022-12-12T14:51:29.504Z,20.83
2022-12-12T14:53:59.244Z,22.48
2022-12-12T14:56:41.021Z,21.70
2022-12-12T14:59:07.647Z,22.67
2022-12-12T15:01:36.434Z,21.77
2022-12-12T15:04:07.006Z,22.17
2022-12-12T15:06:39.403Z,19.48
2022-12-12T15:09:39.012Z,18.23
2022-12-12T15:12:11.649Z,17.80
2022-12-12T15:14:57.632Z,20.85
2022-12-12T15:17:26.683Z,16.50
2022-12-12T15:20:08.212Z,16.83
2022-12-12T15:22:48.623Z,17.02
2022-12-12T15:25:23.945Z,13.55
2022-12-12T15:27:56.073Z,15.10
2022-12-12T15:30:39.621Z,15.98
2022-12-12T15:33:14.728Z,14.15
2022-12-12T15:35:57.911Z,19.45
2022-12-12T15:38:28.457Z,13.32
2022-12-12T15:40:58.276Z,13.75
2022-12-12T15:43:27.899Z,12.55
2022-12-12T15:46:07.048Z,13.32
2022-12-12T15:48:34.025Z,12.52
2022-12-12T15:51:06.715Z,9.52
2022-12-12T15:53:36.783Z,7.88
2022-12-12T15:56:06.488Z,8.68
2022-12-12T15:58:45.366Z,6.82
2022-12-12T16:01:21.480Z,6.10
2022-12-12T16:04:00.854Z,6.38
2022-12-12T16:06:27.608Z,7.00
2022-12-12T16:09:07.767Z,5.80
2022-12-12T16:11:50.634Z,7.03
2022-12-12T16:14:40.823Z,7.68
2022-12-12T16:17:12.015Z,7.35
2022-12-12T16:19:47.534Z,7.80
2022-12-12T16:22:20.919Z,7.03
2022-12-12T16:24:51.804Z,8.70
2022-12-12T16:27:22.047Z,8.30
2022-12-12T16:29:49.105Z,9.77
2022-12-12T16:32:19.713Z,12.13
2022-12-12T16:34:46.821Z,13.75
2022-12-12T16:37:16.430Z,11.10
2022-12-12T16:39:44.813Z,11.25
2022-12-12T16:42:16.575Z,11.07
2022-12-12T16:44:44.131Z,9.05
2022-12-12T16:47:18.140Z,9.95
2022-12-12T16:49:45.533Z,10.90
2022-12-12T16:52:14.493Z,10.75
2022-12-12T16:54:41.544Z,8.45
2022-12-12T16:57:08.670Z,17.02
2022-12-12T16:59:36.102Z,8.05
2022-12-12T17:02:03.666Z,7.60
2022-12-12T17:04:30.659Z,9.60
2022-12-12T17:06:59.906Z,10.45
2022-12-12T17:09:30.121Z,13.38
2022-12-12T17:11:57.027Z,14.88
2022-12-12T17:14:25.205Z,13.77
2022-12-12T17:16:53.801Z,9.80
2022-12-12T17:19:20.724Z,9.07
2022-12-12T17:21:47.764Z,3.97
2022-12-12T17:24:14.794Z,4.55
2022-12-12T17:26:41.514Z,2.97
2022-12-12T17:29:09.552Z,2.20
2022-12-12T17:31:37.092Z,1.83
2022-12-12T17:34:04.254Z,2.38
2022-12-12T17:36:30.962Z,1.73
2022-12-12T17:38:59.038Z,1.88
2022-12-12T17:41:26.726Z,2.22
2022-12-12T17:43:55.841Z,1.73
2022-12-12T17:46:23.733Z,2.17
2022-12-12T17:48:50.600Z,2.17
2022-12-12T17:51:20.292Z,2.40
2022-12-12T17:53:47.441Z,1.63
2022-12-12T17:56:16.603Z,2.53
2022-12-12T17:58:45.757Z,3.35
2022-12-12T18:01:21.232Z,1.73
2022-12-12T18:03:48.665Z,2.42
2022-12-12T18:06:16.452Z,1.27
2022-12-12T18:08:44.674Z,2.95
2022-12-12T18:11:17.842Z,2.38
2022-12-12T18:13:48.679Z,2.40
2022-12-12T18:16:15.828Z,3.00
2022-12-12T18:18:42.950Z,2.78
2022-12-12T18:21:23.588Z,3.67
2022-12-12T18:24:02.581Z,2.90
2022-12-12T18:26:29.675Z,3.28
2022-12-12T18:29:01.955Z,3.97
2022-12-12T18:31:29.892Z,2.22
2022-12-12T18:33:57.537Z,3.72
2022-12-12T18:36:27.765Z,2.67
2022-12-12T18:38:59.672Z,3.70
2022-12-12T18:41:28.238Z,4.32
2022-12-12T18:43:55.484Z,4.82
2022-12-12T18:46:24.909Z,5.60
2022-12-12T18:48:51.639Z,4.65
2022-12-12T18:51:23.206Z,4.30
2022-12-12T18:53:51.402Z,1.77
2022-12-12T18:56:30.066Z,1.00
2022-12-12T18:58:58.768Z,1.00
2022-12-12T19:01:28.765Z,1.85
2022-12-12T19:03:57.606Z,1.83
2022-12-12T19:06:32.010Z,3.42
2022-12-12T19:08:58.972Z,1.73
2022-12-12T19:11:25.605Z,1.77
2022-12-12T19:13:52.615Z,4.15
2022-12-12T19:16:21.104Z,2.25
2022-12-12T19:18:48.159Z,3.50
2022-12-12T19:21:17.957Z,3.97
2022-12-12T19:23:45.410Z,2.55
2022-12-12T19:26:17.236Z,3.25
2022-12-12T19:28:44.531Z,3.45
2022-12-12T19:31:16.314Z,5.07
2022-12-12T19:33:44.720Z,4.32
2022-12-12T19:36:15.251Z,5.00
2022-12-12T19:38:42.803Z,4.70
2022-12-12T19:41:11.372Z,4.43
2022-12-12T19:43:38.174Z,3.50
2022-12-12T19:46:09.280Z,4.60
2022-12-12T19:48:37.390Z,5.47
2022-12-12T19:51:13.006Z,4.28
2022-12-12T19:53:42.214Z,4.32
2022-12-12T19:56:12.668Z,4.10
2022-12-12T19:58:40.227Z,4.18
2022-12-12T20:01:13.451Z,4.32
2022-12-12T20:03:40.626Z,4.15
2022-12-12T20:06:10.518Z,3.72
2022-12-12T20:08:38.105Z,3.05
2022-12-12T20:11:11.446Z,4.78
2022-12-12T20:13:38.526Z,4.97
2022-12-12T20:16:14.019Z,11.07
2022-12-12T20:18:41.637Z,14.38
2022-12-12T20:21:16.838Z,9.60
2022-12-12T20:23:55.244Z,7.40
2022-12-12T20:26:25.204Z,6.68
2022-12-12T20:28:53.713Z,5.57
2022-12-12T20:31:25.892Z,5.43
2022-12-12T20:33:55.265Z,4.78
2022-12-12T20:36:27.043Z,3.42
2022-12-12T20:38:55.789Z,3.20
2022-12-12T20:41:34.508Z,3.53
2022-12-12T20:44:01.573Z,4.22
2022-12-12T20:46:30.783Z,4.88
2022-12-12T20:48:59.529Z,4.22
2022-12-12T20:51:54.752Z,4.95
2022-12-12T20:54:20.037Z,4.35
2022-12-12T20:56:46.878Z,4.97
2022-12-12T20:59:14.595Z,6.10
2022-12-12T21:01:41.760Z,3.75
2022-12-12T21:04:09.614Z,6.30
2022-12-12T21:06:43.213Z,5.53
2022-12-12T21:09:11.768Z,5.80
2022-12-12T21:11:39.636Z,5.95
2022-12-12T21:14:07.763Z,6.53
2022-12-12T21:16:37.706Z,6.70
2022-12-12T21:19:07.543Z,6.07
2022-12-12T21:21:34.755Z,4.75
2022-12-12T21:24:01.948Z,4.32
2022-12-12T21:26:30.877Z,4.57
2022-12-12T21:28:58.949Z,4.70
2022-12-12T21:31:29.029Z,4.43
2022-12-12T21:33:56.335Z,3.22
2022-12-12T21:36:24.201Z,4.30
2022-12-12T21:38:52.659Z,5.03
2022-12-12T21:41:21.548Z,4.13
2022-12-12T21:43:49.132Z,4.00
2022-12-12T21:46:22.894Z,4.18
2022-12-12T21:49:09.217Z,4.60
2022-12-12T21:51:36.187Z,4.05
2022-12-12T21:54:04.297Z,4.20
2022-12-12T21:56:31.155Z,3.90
2022-12-12T21:58:58.566Z,4.05
2022-12-12T22:01:25.438Z,5.00
2022-12-12T22:03:52.138Z,5.45
2022-12-12T22:06:30.659Z,5.72
2022-12-12T22:08:59.888Z,5.10
2022-12-12T22:11:40.875Z,5.32
2022-12-12T22:14:17.021Z,4.85
2022-12-12T22:16:43.639Z,4.72
2022-12-12T22:19:14.954Z,4.60
2022-12-12T22:21:43.911Z,4.68
2022-12-12T22:24:10.633Z,4.82
2022-12-12T22:26:39.903Z,3.90
2022-12-12T22:29:17.790Z,4.10
2022-12-12T22:31:45.453Z,3.30
2022-12-12T22:34:21.570Z,2.70
2022-12-12T22:36:48.512Z,2.72
2022-12-12T22:39:27.081Z,2.65
2022-12-12T22:41:55.052Z,2.92
2022-12-12T22:44:23.682Z,3.05
2022-12-12T22:46:52.195Z,3.30
2022-12-12T22:49:22.514Z,3.30
2022-12-12T22:51:49.774Z,3.05
2022-12-12T22:54:17.460Z,3.33
2022-12-12T22:56:44.911Z,3.20
2022-12-12T22:59:15.525Z,3.55
2022-12-12T23:01:42.636Z,3.28
2022-12-12T23:04:13.923Z,3.75
2022-12-12T23:06:42.345Z,4.40
2022-12-12T23:09:17.621Z,4.18
2022-12-12T23:11:44.889Z,3.35
2022-12-12T23:14:14.994Z,3.00
2022-12-12T23:16:42.462Z,2.92
2022-12-12T23:19:10.208Z,2.60
2022-12-12T23:21:37.845Z,3.00
2022-12-12T23:24:06.423Z,1.88
2022-12-12T23:26:35.262Z,2.90
2022-12-12T23:29:02.202Z,3.15
2022-12-12T23:31:32.217Z,2.83
2022-12-12T23:34:01.963Z,2.35
2022-12-12T23:36:29.496Z,3.30
2022-12-12T23:39:01.407Z,3.15
2022-12-12T23:41:28.920Z,3.53
2022-12-12T23:43:56.354Z,4.07
2022-12-12T23:46:29.690Z,2.50
2022-12-12T23:49:18.154Z,2.50
2022-12-12T23:51:50.699Z,3.38
2022-12-12T23:54:20.373Z,3.15
2022-12-12T23:56:48.563Z,2.97
2022-12-12T23:59:18.289Z,3.50
